Flight Track Log - Related Links

Times and Time Zones

All times are in EDT time to prevent confusion due to time zone crossing. See the VRD162 flight status page for this flight to view local times or setup timezone preferences in your user account.

Time Position Orientation Groundspeed Altitude Reporting Facility
EDT Latitude Longitude Course Direction KTS MPH feet Rate Location/Type
Wed 02:34:07 PM 33.9450 -118.4650 264° West 172 198 1,300  Level FlightAware ADS-B
Wed 02:34:22 PM 33.9440 -118.4800 265° West 196 226 1,400 933 Climbing FlightAware ADS-B
Wed 02:34:52 PM 33.9400 -118.5120 261° West 243 280 2,000 1,800 Climbing FlightAware ADS-B
Wed 02:35:02 PM 33.9380 -118.5330 263° West 250 288 2,600 3,733 Climbing FlightAware ADS-B
Wed 02:35:37 PM 33.9270 -118.5870 256° West 249 287 4,800 3,480 Climbing FlightAware ADS-B
Wed 02:35:52 PM 33.9120 -118.6020 220° Southwest 256 295 5,500 2,400 Climbing FlightAware ADS-B
Wed 02:36:02 PM 33.8990 -118.6080 201° Southwest 265 305 5,800 400 Climbing FlightAware ADS-B
Wed 02:36:22 PM 33.9040 -118.6070 North 253 291 5,700 2,000 Descending FlightAware ADS-B
Wed 02:36:47 PM 33.8600 -118.5680 144° Southeast 277 319 7,300 2,836 Climbing FlightAware ADS-B
Wed 02:37:17 PM 33.8720 -118.5300 69° East 283 326 8,300 2,182 Climbing FlightAware ADS-B
Wed 02:37:42 PM 33.8930 -118.4940 55° Northeast 292 336 9,300 2,400 Climbing FlightAware ADS-B
Wed 02:37:57 PM 33.9050 -118.4750 53° Northeast 294 338 9,900 1,855 Climbing FlightAware ADS-B
Wed 02:38:37 PM 33.9410 -118.4190 52° Northeast 325 374 11,000 1,482 Climbing FlightAware ADS-B
Wed 02:39:22 PM 33.9820 -118.3480 55° Northeast 360 414 12,000 1,835 Climbing FlightAware ADS-B
Wed 02:40:02 PM 34.0190 -118.2820 56° Northeast 366 421 13,600 2,259 Climbing FlightAware ADS-B
Wed 02:40:47 PM 34.0640 -118.2030 55° Northeast 374 430 15,200 1,976 Climbing FlightAware ADS-B
Wed 02:41:27 PM 34.1030 -118.1340 56° Northeast 387 445 16,400 1,129 Climbing FlightAware ADS-B
Wed 02:42:12 PM 34.1460 -118.0570 56° Northeast 385 443 16,800 706 Climbing FlightAware ADS-B
Wed 02:42:52 PM 34.1880 -117.9820 56° Northeast 409 471 17,400 1,125 Climbing FlightAware ADS-B
Wed 02:43:32 PM 34.2320 -117.9050 55° Northeast 422 486 18,300 1,412 Climbing FlightAware ADS-B
Wed 02:44:17 PM 34.2740 -117.8080 62° Northeast 434 499 19,400 1,553 Climbing FlightAware ADS-B
Wed 02:44:57 PM 34.3100 -117.7180 64° Northeast 441 507 20,500 1,624 Climbing FlightAware ADS-B
Wed 02:45:42 PM 34.3500 -117.6210 63° Northeast 442 509 21,700 1,624 Climbing FlightAware ADS-B
Wed 02:46:22 PM 34.3970 -117.5410 55° Northeast 441 507 22,800 1,650 Climbing FlightAware ADS-B
Wed 02:47:02 PM 34.4450 -117.4610 54° Northeast 444 511 23,900 1,553 Climbing FlightAware ADS-B
Wed 02:47:47 PM 34.4990 -117.3690 55° Northeast 445 512 25,000 1,482 Climbing FlightAware ADS-B
Wed 02:48:27 PM 34.5480 -117.2870 54° Northeast 446 513 26,000 1,500 Climbing FlightAware ADS-B
Wed 02:49:07 PM 34.5960 -117.2060 54° Northeast 448 516 27,000 1,412 Climbing FlightAware ADS-B
Wed 02:49:52 PM 34.6470 -117.1190 55° Northeast 453 521 28,000 706 Climbing FlightAware ADS-B
Wed 02:50:32 PM 34.7000 -117.0290 54° Northeast 481 554 28,000  Level FlightAware ADS-B
Wed 02:51:17 PM 34.7570 -116.9310 55° Northeast 489 563 28,000 424 Level FlightAware ADS-B
Wed 02:51:57 PM 34.8110 -116.8390 54° Northeast 489 563 28,600 1,200 Climbing FlightAware ADS-B
Wed 02:52:42 PM 34.8690 -116.7390 55° Northeast 489 563 29,700 1,129 Climbing FlightAware ADS-B
Wed 02:53:22 PM 34.9220 -116.6480 55° Northeast 503 579 30,200 1,059 Climbing FlightAware ADS-B
Wed 02:54:07 PM 34.9880 -116.5480 51° Northeast 500 575 31,200 1,200 Climbing FlightAware ADS-B
Wed 02:54:47 PM 35.0530 -116.4660 46° Northeast 504 580 31,900 675 Climbing FlightAware ADS-B
Wed 02:55:27 PM 35.1180 -116.3850 46° Northeast 508 585 32,100 918 Climbing FlightAware ADS-B
Wed 02:56:12 PM 35.1950 -116.2880 46° Northeast 503 579 33,200 1,765 Climbing FlightAware ADS-B
Wed 02:56:52 PM 35.2580 -116.2100 45° Northeast 488 562 34,600 1,350 Climbing FlightAware ADS-B
Wed 02:57:32 PM 35.3200 -116.1320 46° Northeast 490 564 35,000 282 Climbing FlightAware ADS-B
Wed 02:58:17 PM 35.3890 -116.0450 46° Northeast 486 559 35,000  Level FlightAware ADS-B
Wed 02:58:57 PM 35.4530 -115.9630 46° Northeast 490 564 35,000  Level FlightAware ADS-B
Wed 02:59:42 PM 35.5190 -115.8660 50° Northeast 493 567 35,000  Level FlightAware ADS-B
Wed 03:00:22 PM 35.5760 -115.7780 51° Northeast 494 568 35,000  Level FlightAware ADS-B
Wed 03:01:02 PM 35.6330 -115.6890 52° Northeast 495 570 35,000  Level FlightAware ADS-B
Wed 03:01:47 PM 35.6930 -115.5940 52° Northeast 495 570 35,000 282 Level FlightAware ADS-B
Wed 03:02:27 PM 35.7520 -115.5010 52° Northeast 493 567 35,400 1,059 Climbing FlightAware ADS-B
Wed 03:03:12 PM 35.8150 -115.4030 52° Northeast 484 557 36,500 1,129 Climbing FlightAware ADS-B
Wed 03:03:52 PM 35.8700 -115.3160 52° Northeast 474 545 37,000 375 Climbing FlightAware ADS-B
Wed 03:04:32 PM 35.9230 -115.2310 52° Northeast 475 547 37,000  Level FlightAware ADS-B
Wed 03:05:17 PM 35.9830 -115.1360 52° Northeast 479 551 37,000  Level FlightAware ADS-B
Wed 03:05:57 PM 36.0360 -115.0510 52° Northeast 480 552 37,000  Level FlightAware ADS-B
Wed 03:06:42 PM 36.0990 -114.9500 52° Northeast 480 552 37,000  Level FlightAware ADS-B
Wed 03:07:22 PM 36.1540 -114.8620 52° Northeast 481 554 37,000  Level FlightAware ADS-B
Wed 03:08:02 PM 36.2090 -114.7750 52° Northeast 482 555 37,000  Level FlightAware ADS-B
Wed 03:08:47 PM 36.2670 -114.6800 53° Northeast 481 554 37,000  Level FlightAware ADS-B
Wed 03:09:27 PM 36.3220 -114.5920 52° Northeast 480 552 37,000  Level FlightAware ADS-B
Wed 03:10:12 PM 36.3840 -114.4910 53° Northeast 479 551 37,000  Level FlightAware ADS-B
Wed 03:10:52 PM 36.4390 -114.4030 52° Northeast 478 550 37,000  Level FlightAware ADS-B
Wed 03:11:32 PM 36.4900 -114.3190 53° Northeast 479 551 37,000  Level FlightAware ADS-B
Wed 03:12:17 PM 36.5500 -114.2210 53° Northeast 476 548 37,000  Level FlightAware ADS-B
Wed 03:12:57 PM 36.6030 -114.1350 52° Northeast 474 545 37,000  Level FlightAware ADS-B
Wed 03:13:37 PM 36.6570 -114.0460 53° Northeast 473 544 37,000  Level FlightAware ADS-B
Wed 03:14:22 PM 36.7170 -113.9480 53° Northeast 473 544 37,000  Level FlightAware ADS-B
Wed 03:15:02 PM 36.7690 -113.8610 53° Northeast 474 545 37,000  Level FlightAware ADS-B
Wed 03:15:47 PM 36.8270 -113.7640 53° Northeast 474 545 37,000  Level FlightAware ADS-B
Wed 03:16:27 PM 36.8800 -113.6780 52° Northeast 474 545 37,000  Level FlightAware ADS-B
Wed 03:17:12 PM 36.9390 -113.5790 53° Northeast 473 544 37,000  Level FlightAware ADS-B
Wed 03:17:52 PM 36.9930 -113.4890 53° Northeast 473 544 37,000  Level FlightAware ADS-B
Wed 03:18:32 PM 37.0450 -113.4020 53° Northeast 471 542 37,000  Level FlightAware ADS-B
Wed 03:19:17 PM 37.1010 -113.3070 54° Northeast 470 541 37,000  Level FlightAware ADS-B
Wed 03:19:57 PM 37.1550 -113.2170 53° Northeast 470 541 37,000  Level FlightAware ADS-B
Wed 03:20:42 PM 37.2140 -113.1190 53° Northeast 471 542 37,000  Level FlightAware ADS-B
Wed 03:21:22 PM 37.2650 -113.0310 54° Northeast 471 542 37,000  Level FlightAware ADS-B
Wed 03:22:07 PM 37.3210 -112.9360 53° Northeast 470 541 37,000  Level FlightAware ADS-B
Wed 03:22:37 PM 37.3610 -112.8680 53° Northeast 470 541 37,000  Level FlightAware ADS-B
Wed 03:23:22 PM 37.4130 -112.7810 53° Northeast 470 541 37,000  Level FlightAware ADS-B
Wed 03:24:12 PM 37.4690 -112.6880 53° Northeast 470 541 37,000  Level FlightAware ADS-B
Wed 03:24:52 PM 37.5130 -112.6130 53° Northeast 470 541 37,000  Level FlightAware ADS-B
Wed 03:25:32 PM 37.5580 -112.5390 52° Northeast 470 541 37,000  Level FlightAware ADS-B
Wed 03:26:12 PM 37.6020 -112.4640 53° Northeast 470 541 37,000  Level FlightAware ADS-B
Wed 03:26:52 PM 37.6470 -112.3900 52° Northeast 470 541 37,000  Level FlightAware ADS-B
Wed 03:27:42 PM 37.7020 -112.2970 53° Northeast 470 541 37,000  Level FlightAware ADS-B
Wed 03:28:22 PM 37.7470 -112.2220 53° Northeast 470 541 37,000  Level FlightAware ADS-B
Wed 03:29:02 PM 37.7910 -112.1470 53° Northeast 470 541 37,000  Level FlightAware ADS-B
Wed 03:29:42 PM 37.8360 -112.0720 53° Northeast 470 541 37,000  Level FlightAware ADS-B
Wed 03:30:22 PM 37.8800 -111.9980 53° Northeast 470 541 37,000  Level FlightAware ADS-B
Wed 03:31:12 PM 37.9360 -111.9040 53° Northeast 470 541 37,000  Level FlightAware ADS-B
Wed 03:31:52 PM 37.9800 -111.8290 53° Northeast 470 541 37,000  Level FlightAware ADS-B
Wed 03:32:32 PM 38.0250 -111.7540 53° Northeast 470 541 37,000 29 Level FlightAware ADS-B
Wed 03:35:22 PM 38.3280 -111.1860 56° Northeast 462 532 37,100 29 Climbing FlightAware ADS-B
Wed 03:36:02 PM 38.3770 -111.0980 55° Northeast 457 526 37,100 -63 Level FlightAware ADS-B
Wed 03:36:57 PM 38.4470 -110.9730 54° Northeast 454 522 37,000 -63 Descending FlightAware ADS-B
Wed 03:37:37 PM 38.4950 -110.8870 54° Northeast 451 519 37,000  Level FlightAware ADS-B
Wed 03:38:22 PM 38.5470 -110.7930 55° Northeast 451 519 37,000  Level FlightAware ADS-B
Wed 03:39:02 PM 38.5930 -110.7100 55° Northeast 451 519 37,000  Level FlightAware ADS-B
Wed 03:39:47 PM 38.6530 -110.6020 55° Northeast 453 521 37,000  Level FlightAware ADS-B
Wed 03:40:27 PM 38.6930 -110.5280 55° Northeast 453 521 37,000 71 Level FlightAware ADS-B
Wed 03:41:12 PM 38.7530 -110.4190 55° Northeast 454 522 37,100  Climbing FlightAware ADS-B
Wed 03:41:52 PM 38.8030 -110.3280 55° Northeast 453 521 37,000 -75 Descending FlightAware ADS-B
Wed 03:42:32 PM 38.8490 -110.2420 56° Northeast 451 519 37,000  Level FlightAware ADS-B
Wed 03:43:17 PM 38.9030 -110.1440 55° Northeast 451 519 37,000  Level FlightAware ADS-B
Wed 03:44:12 PM 38.9610 -110.0360 55° Northeast 449 517 37,000  Level FlightAware ADS-B
Wed 03:44:57 PM 39.0210 -109.9260 55° Northeast 448 516 37,000  Level FlightAware ADS-B
Wed 03:46:47 PM 39.1500 -109.6870 55° Northeast 446 513 37,000  Level FlightAware ADS-B
Wed 03:47:27 PM 39.1990 -109.5940 56° Northeast 446 513 37,000  Level FlightAware ADS-B
Wed 03:48:12 PM 39.2500 -109.4990 55° Northeast 446 513 37,000  Level FlightAware ADS-B
Wed 03:48:52 PM 39.2960 -109.4110 56° Northeast 446 513 37,000  Level FlightAware ADS-B
Wed 03:49:47 PM 39.3540 -109.3020 55° Northeast 444 511 37,000  Level FlightAware ADS-B
Wed 03:50:27 PM 39.4070 -109.2020 56° Northeast 444 511 37,000  Level FlightAware ADS-B
Wed 03:51:12 PM 39.4470 -109.0950 64° Northeast 436 502 37,000  Level FlightAware ADS-B
Wed 03:51:57 PM 39.4720 -108.9870 73° East 438 504 37,000  Level FlightAware ADS-B
Wed 03:52:37 PM 39.4960 -108.8820 73° East 437 503 37,000  Level FlightAware ADS-B
Wed 03:53:17 PM 39.5200 -108.7800 73° East 439 505 37,000  Level FlightAware ADS-B
Wed 03:53:57 PM 39.5390 -108.6950 74° East 440 506 37,000  Level FlightAware ADS-B
Wed 03:54:47 PM 39.5690 -108.5610 74° East 439 505 37,000  Level FlightAware ADS-B
Wed 03:55:27 PM 39.5910 -108.4650 73° East 438 504 37,000  Level FlightAware ADS-B
Wed 03:56:02 PM 39.6100 -108.3800 74° East 438 504 37,000  Level FlightAware ADS-B
Wed 03:57:17 PM 39.6540 -108.1850 74° East 435 501 37,000  Level FlightAware ADS-B
Wed 03:58:02 PM 39.6790 -108.0710 74° East 434 499 37,000  Level FlightAware ADS-B
Wed 03:58:42 PM 39.7030 -107.9640 74° East 436 502 37,000  Level FlightAware ADS-B
Wed 03:59:27 PM 39.7280 -107.8500 74° East 438 504 37,000  Level FlightAware ADS-B
Wed 04:00:02 PM 39.7470 -107.7630 74° East 440 506 37,000 75 Level FlightAware ADS-B
Wed 04:00:47 PM 39.7700 -107.6590 74° East 440 506 37,100 67 Climbing FlightAware ADS-B
Wed 04:01:32 PM 39.7960 -107.5370 74° East 438 504 37,100 -100 Level FlightAware ADS-B
Wed 04:01:47 PM 39.8063 -107.4910 74° East 438 504 37,000  Descending FlightAware ADS-B
Wed 04:02:18 PM 39.8231 -107.4130 74° East 437 503 37,100  Climbing FlightAware ADS-B
Wed 04:02:52 PM 39.8411 -107.3300 74° East 434 499 37,000 -83 Descending FlightAware ADS-B
Wed 04:03:30 PM 39.8614 -107.2350 74° East 431 496 37,000  Level FlightAware ADS-B
Wed 04:04:11 PM 39.8833 -107.1320 74° East 429 494 37,000  Level FlightAware ADS-B
Wed 04:04:54 PM 39.9055 -107.0250 75° East 428 493 37,000  Level FlightAware ADS-B
Wed 04:05:25 PM 39.9221 -106.9470 74° East 428 493 37,000  Level FlightAware ADS-B
Wed 04:06:15 PM 39.9482 -106.8250 74° East 428 493 37,000  Level FlightAware ADS-B
Wed 04:07:07 PM 39.9750 -106.6970 75° East 431 496 37,000  Level FlightAware ADS-B
Wed 04:07:17 PM 39.9809 -106.6680 75° East 432 497 37,000  Level FlightAware ADS-B
Wed 04:07:48 PM 39.9967 -106.5900 75° East 433 498 37,000  Level FlightAware ADS-B
Wed 04:08:32 PM 40.0190 -106.4850 74° East 433 498 37,000  Level FlightAware ADS-B
Wed 04:09:12 PM 40.0390 -106.3840 75° East 434 499 37,000  Level FlightAware ADS-B
Wed 04:09:41 PM 40.0553 -106.3060 75° East 437 503 37,000  Level FlightAware ADS-B
Wed 04:10:15 PM 40.0731 -106.2180 75° East 439 505 37,000 87 Level FlightAware ADS-B
Wed 04:10:50 PM 40.0912 -106.1290 75° East 437 503 37,100 82 Climbing FlightAware ADS-B
Wed 04:11:28 PM 40.1103 -106.0330 75° East 439 505 37,100  Level FlightAware ADS-B
Wed 04:12:02 PM 40.1280 -105.9490 75° East 434 499 37,100 -113 Level FlightAware ADS-B
Wed 04:12:21 PM 40.1380 -105.8980 76° East 435 501 37,000 -97 Descending FlightAware ADS-B
Wed 04:13:04 PM 40.1597 -105.7880 75° East 436 502 37,000 76 Level FlightAware ADS-B
Wed 04:13:40 PM 40.1777 -105.6980 75° East 436 502 37,100  Climbing FlightAware ADS-B
Wed 04:14:25 PM 40.2007 -105.5840 75° East 430 495 37,000 -54 Descending FlightAware ADS-B
Wed 04:15:31 PM 40.2329 -105.4170 76° East 432 497 37,000  Level FlightAware ADS-B
Wed 04:16:02 PM 40.2478 -105.3400 76° East 437 503 37,000  Level FlightAware ADS-B
Wed 04:16:33 PM 40.2637 -105.2600 75° East 437 503 37,000  Level FlightAware ADS-B
Wed 04:17:03 PM 40.2790 -105.1820 76° East 437 503 37,000  Level FlightAware ADS-B
Wed 04:17:34 PM 40.2940 -105.1040 76° East 438 504 37,000  Level FlightAware ADS-B
Wed 04:18:04 PM 40.3086 -105.0270 76° East 437 503 37,000  Level FlightAware ADS-B
Wed 04:18:35 PM 40.3240 -104.9470 76° East 437 503 37,000  Level FlightAware ADS-B
Wed 04:19:06 PM 40.3390 -104.8680 76° East 436 502 37,000  Level FlightAware ADS-B
Wed 04:19:36 PM 40.3533 -104.7930 76° East 436 502 37,000  Level FlightAware ADS-B
Wed 04:20:07 PM 40.3685 -104.7130 76° East 437 503 37,000  Level FlightAware ADS-B
Wed 04:20:37 PM 40.3829 -104.6350 76° East 437 503 37,000  Level FlightAware ADS-B
Wed 04:21:07 PM 40.3974 -104.5570 76° East 439 505 37,000  Level FlightAware ADS-B
Wed 04:21:37 PM 40.4120 -104.4790 76° East 440 506 37,000  Level FlightAware ADS-B
Wed 04:22:08 PM 40.4266 -104.4010 76° East 440 506 37,000  Level FlightAware ADS-B
Wed 04:22:38 PM 40.4413 -104.3220 76° East 441 507 37,000  Level FlightAware ADS-B
Wed 04:23:09 PM 40.4564 -104.2420 76° East 442 509 37,000  Level FlightAware ADS-B
Wed 04:23:43 PM 40.4728 -104.1530 76° East 443 510 37,000  Level FlightAware ADS-B
Wed 04:24:14 PM 40.4875 -104.0720 77° East 444 511 37,000  Level FlightAware ADS-B
Wed 04:24:46 PM 40.5025 -103.9890 77° East 445 512 37,000  Level FlightAware ADS-B
Wed 04:25:16 PM 40.5170 -103.9100 76° East 446 513 37,000  Level FlightAware ADS-B
Wed 04:25:46 PM 40.5315 -103.8290 77° East 446 513 37,000  Level FlightAware ADS-B
Wed 04:26:17 PM 40.5458 -103.7500 77° East 446 513 37,000  Level FlightAware ADS-B
Wed 04:26:48 PM 40.5599 -103.6700 77° East 446 513 37,000  Level FlightAware ADS-B
Wed 04:27:18 PM 40.5747 -103.5870 77° East 446 513 37,000  Level FlightAware ADS-B
Wed 04:27:48 PM 40.5887 -103.5080 77° East 447 514 37,000  Level FlightAware ADS-B
Wed 04:28:19 PM 40.6029 -103.4290 77° East 446 513 37,000  Level FlightAware ADS-B
Wed 04:28:49 PM 40.6172 -103.3470 77° East 446 513 37,000  Level FlightAware ADS-B
Wed 04:29:20 PM 40.6309 -103.2670 77° East 446 513 37,000  Level FlightAware ADS-B
Wed 04:29:51 PM 40.6455 -103.1840 77° East 445 512 37,000  Level FlightAware ADS-B
Wed 04:30:21 PM 40.6594 -103.1040 77° East 445 512 37,000  Level FlightAware ADS-B
Wed 04:30:52 PM 40.6733 -103.0240 77° East 446 513 37,000  Level FlightAware ADS-B
Wed 04:31:22 PM 40.6870 -102.9450 77° East 447 514 37,000  Level FlightAware ADS-B
Wed 04:31:53 PM 40.7012 -102.8620 77° East 449 517 37,000  Level FlightAware ADS-B
Wed 04:32:26 PM 40.7159 -102.7750 77° East 449 517 37,000  Level FlightAware ADS-B
Wed 04:32:56 PM 40.7295 -102.6950 77° East 450 518 37,000  Level FlightAware ADS-B
Wed 04:33:26 PM 40.7434 -102.6130 77° East 451 519 37,000  Level FlightAware ADS-B
Wed 04:33:57 PM 40.7572 -102.5310 77° East 451 519 37,000  Level FlightAware ADS-B
Wed 04:34:28 PM 40.7709 -102.4490 78° East 452 520 37,000 98 Level FlightAware ADS-B
Wed 04:34:58 PM 40.7845 -102.3670 78° East 451 519 37,100  Climbing FlightAware ADS-B
Wed 04:35:31 PM 40.7991 -102.2800 77° East 450 518 37,000 -95 Descending FlightAware ADS-B
Wed 04:36:01 PM 40.8125 -102.1980 78° East 449 517 37,000  Level FlightAware ADS-B
Wed 04:36:31 PM 40.8257 -102.1180 78° East 449 517 37,000  Level FlightAware ADS-B
Wed 04:37:02 PM 40.8390 -102.0370 78° East 449 517 37,000  Level FlightAware ADS-B
Wed 04:37:32 PM 40.8523 -101.9570 78° East 450 518 37,000  Level FlightAware ADS-B
Wed 04:38:02 PM 40.8654 -101.8760 78° East 451 519 37,000  Level FlightAware ADS-B
Wed 04:38:32 PM 40.8782 -101.7950 78° East 453 521 37,000  Level FlightAware ADS-B
Wed 04:39:03 PM 40.8916 -101.7100 78° East 456 525 37,000  Level FlightAware ADS-B
Wed 04:39:34 PM 40.9048 -101.6270 78° East 458 527 37,000  Level FlightAware ADS-B
Wed 04:40:04 PM 40.9184 -101.5430 78° East 458 527 37,000 98 Level FlightAware ADS-B
Wed 04:40:35 PM 40.9316 -101.4590 78° East 458 527 37,100 97 Climbing FlightAware ADS-B
Wed 04:41:06 PM 40.9448 -101.3750 78° East 456 525 37,100  Level FlightAware ADS-B
Wed 04:41:37 PM 40.9575 -101.2940 78° East 455 524 37,100 -98 Level FlightAware ADS-B
Wed 04:42:07 PM 40.9706 -101.2090 78° East 454 522 37,000 -100 Descending FlightAware ADS-B
Wed 04:42:37 PM 40.9835 -101.1260 78° East 451 519 37,000  Level FlightAware ADS-B
Wed 04:43:09 PM 40.9964 -101.0430 78° East 448 516 37,000  Level FlightAware ADS-B
Wed 04:43:36 PM 41.0039 -100.9925 79° East 449 517 37,000  Level Denver Center
Wed 04:43:41 PM 41.0097 -100.9560 79° East 447 514 37,000  Level FlightAware ADS-B
Wed 04:44:38 PM 41.0317 -100.8119 78° East 444 511 37,000  Level Denver Center
Wed 04:45:40 PM 41.0547 -100.6583 79° East 440 506 37,000  Level Denver Center
Wed 04:46:42 PM 41.0783 -100.5056 78° East 438 504 37,000  Level Denver Center
Wed 04:47:43 PM 41.1042 -100.3275 79° East 439 505 37,000  Level Denver Center
Wed 04:50:00 PM 41.1456 -99.9586 79° East  Level FlightAware Approximate
Wed 04:50:33 PM 41.1717 -99.8669 79° East 447 514 37,000  Level Minneapolis Center
Wed 04:50:49 PM 41.1744 -99.8383 83° East 447 514 37,000  Level Denver Center
Wed 04:51:50 PM 41.1964 -99.6831 79° East 447 514 37,000  Level Denver Center
Wed 04:52:52 PM 41.2225 -99.5006 79° East 450 518 37,000  Level Denver Center
Wed 04:53:54 PM 41.2439 -99.3453 80° East 448 516 37,000  Level Denver Center
Wed 04:54:55 PM 41.2669 -99.1817 79° East 448 516 37,000  Level Denver Center
Wed 04:55:57 PM 41.2908 -99.0056 80° East 451 519 37,000  Level Denver Center
Wed 04:56:59 PM 41.3117 -98.8458 80° East 454 522 37,000  Level Denver Center
Wed 04:57:48 PM 41.3300 -98.7133 80° East 453 521 37,000  Level Minneapolis Center
Wed 04:58:50 PM 41.3561 -98.5117 80° East 458 527 37,000  Level Minneapolis Center
Wed 04:59:52 PM 41.3764 -98.3369 81° East 461 531 37,000  Level Minneapolis Center
Wed 05:00:54 PM 41.3822 -98.1656 87° East 461 531 37,000  Level Minneapolis Center
Wed 05:01:56 PM 41.3878 -98.0011 87° East 463 533 37,000  Level Minneapolis Center
Wed 05:02:58 PM 41.3917 -97.8297 88° East 463 533 37,000  Level Minneapolis Center
Wed 05:04:00 PM 41.3972 -97.6567 87° East 466 536 37,000  Level Minneapolis Center
Wed 05:05:02 PM 41.4025 -97.4481 88° East 470 541 37,000  Level Minneapolis Center
Wed 05:06:04 PM 41.4069 -97.2725 88° East 471 542 37,000  Level Minneapolis Center
Wed 05:07:06 PM 41.4114 -97.0967 88° East 475 547 37,000  Level Minneapolis Center
Wed 05:08:08 PM 41.4142 -96.9197 89° East 478 550 37,000  Level Minneapolis Center
Wed 05:09:10 PM 41.4183 -96.7419 88° East 480 552 37,000  Level Minneapolis Center
Wed 05:10:13 PM 41.4222 -96.5639 88° East 479 551 37,000  Level Minneapolis Center
Wed 05:11:15 PM 41.4258 -96.3867 88° East 478 550 37,000  Level Minneapolis Center
Wed 05:12:17 PM 41.4278 -96.2006 89° East 477 549 37,000  Level Minneapolis Center
Wed 05:13:19 PM 41.4314 -95.9900 89° East 475 547 37,000  Level Minneapolis Center
Wed 05:19:27 PM 41.4400 -94.9040 89° East 490 564 37,000  Level FlightAware ADS-B
Wed 05:20:22 PM 41.4470 -94.7460 87° East 493 567 37,000  Level FlightAware ADS-B
Wed 05:21:02 PM 41.4530 -94.6430 86° East 493 567 37,000  Level FlightAware ADS-B
Wed 05:21:42 PM 41.4600 -94.5400 85° East 493 567 37,000  Level FlightAware ADS-B
Wed 05:22:42 PM 41.6590 -94.4150 25° Northeast 492 566 37,000  Level FlightAware ADS-B
Wed 05:23:22 PM 41.6800 -94.2990 76° East 488 562 37,000  Level FlightAware ADS-B
Wed 05:24:07 PM 41.6890 -94.1640 85° East 487 560 37,000  Level FlightAware ADS-B
Wed 05:24:47 PM 41.6970 -94.0450 85° East 486 559 37,000  Level FlightAware ADS-B
Wed 05:25:32 PM 41.7060 -93.9120 85° East 486 559 37,000  Level FlightAware ADS-B
Wed 05:26:12 PM 41.7140 -93.7870 85° East 486 559 37,000  Level FlightAware ADS-B
Wed 05:26:52 PM 41.7220 -93.6700 85° East 488 562 37,000  Level FlightAware ADS-B
Wed 05:27:37 PM 41.7300 -93.5360 85° East 488 562 37,000  Level FlightAware ADS-B
Wed 05:28:17 PM 41.7380 -93.4160 85° East 488 562 37,000  Level FlightAware ADS-B
Wed 05:28:57 PM 41.7450 -93.2960 85° East 487 560 37,000  Level FlightAware ADS-B
Wed 05:29:42 PM 41.7540 -93.1570 85° East 486 559 37,000  Level FlightAware ADS-B
Wed 05:30:22 PM 41.7600 -93.0390 86° East 485 558 37,000  Level FlightAware ADS-B
Wed 05:31:07 PM 41.7680 -92.9100 85° East 483 556 37,000  Level FlightAware ADS-B
Wed 05:31:52 PM 41.7760 -92.7750 85° East 482 555 37,000  Level FlightAware ADS-B
Wed 05:32:32 PM 41.7830 -92.6520 86° East 482 555 37,000  Level FlightAware ADS-B
Wed 05:33:12 PM 41.7890 -92.5330 86° East 481 554 37,000  Level FlightAware ADS-B
Wed 05:33:57 PM 41.7960 -92.4030 86° East 481 554 37,000  Level FlightAware ADS-B
Wed 05:34:37 PM 41.8020 -92.2830 86° East 482 555 37,000  Level FlightAware ADS-B
Wed 05:35:17 PM 41.8080 -92.1660 86° East 481 554 37,000  Level FlightAware ADS-B
Wed 05:36:02 PM 41.8150 -92.0300 86° East 478 550 37,000 71 Level FlightAware ADS-B
Wed 05:36:42 PM 41.8210 -91.9150 86° East 475 547 37,100  Climbing FlightAware ADS-B
Wed 05:37:22 PM 41.8270 -91.7930 86° East 472 543 37,000 -71 Descending FlightAware ADS-B
Wed 05:38:07 PM 41.8330 -91.6670 86° East 468 539 37,000  Level FlightAware ADS-B
Wed 05:38:47 PM 41.8380 -91.5550 87° East 466 536 37,000  Level FlightAware ADS-B
Wed 05:39:32 PM 41.8440 -91.4190 87° East 465 535 37,000  Level FlightAware ADS-B
Wed 05:40:12 PM 41.8490 -91.3060 87° East 466 536 37,000  Level FlightAware ADS-B
Wed 05:40:57 PM 41.8540 -91.1860 87° East 469 540 37,000  Level FlightAware ADS-B
Wed 05:41:37 PM 41.8590 -91.0680 87° East 472 543 37,000  Level FlightAware ADS-B
Wed 05:42:17 PM 41.8640 -90.9430 87° East 475 547 37,000 71 Level FlightAware ADS-B
Wed 05:43:02 PM 41.8690 -90.8110 87° East 476 548 37,100 71 Climbing FlightAware ADS-B
Wed 05:43:42 PM 41.8740 -90.6990 87° East 474 545 37,100  Level FlightAware ADS-B
Wed 05:44:22 PM 41.8780 -90.5840 87° East 471 542 37,100 -71 Level FlightAware ADS-B
Wed 05:45:07 PM 41.8830 -90.4550 87° East 467 537 37,000 -71 Descending FlightAware ADS-B
Wed 05:45:47 PM 41.8870 -90.3300 87° East 462 532 37,000  Level FlightAware ADS-B
Wed 05:46:32 PM 41.8910 -90.2080 87° East 458 527 37,000  Level FlightAware ADS-B
Wed 05:47:12 PM 41.8950 -90.0910 87° East 455 524 37,000  Level FlightAware ADS-B
Wed 05:47:52 PM 41.8990 -89.9780 87° East 453 521 37,000  Level FlightAware ADS-B
Wed 05:48:37 PM 41.9030 -89.8500 88° East 451 519 37,000  Level FlightAware ADS-B
Wed 05:49:17 PM 41.9060 -89.7370 88° East 450 518 37,000  Level FlightAware ADS-B
Wed 05:50:02 PM 41.9100 -89.6150 87° East 450 518 37,000  Level FlightAware ADS-B
Wed 05:50:42 PM 41.9130 -89.5040 88° East 451 519 37,000  Level FlightAware ADS-B
Wed 05:51:52 PM 41.9180 -89.3040 88° East 455 524 37,000  Level FlightAware ADS-B
Wed 05:52:27 PM 41.9210 -89.2070 88° East 458 527 37,000  Level FlightAware ADS-B
Wed 05:53:07 PM 41.9230 -89.0910 89° East 461 531 37,000  Level FlightAware ADS-B
Wed 05:53:52 PM 41.9260 -88.9690 88° East 465 535 37,000  Level FlightAware ADS-B
Wed 05:54:32 PM 41.9290 -88.8510 88° East 468 539 37,000  Level FlightAware ADS-B
Wed 05:55:17 PM 41.9320 -88.7170 88° East 471 542 37,000 71 Level FlightAware ADS-B
Wed 05:55:57 PM 41.9340 -88.6090 89° East 473 544 37,100 71 Climbing FlightAware ADS-B
Wed 05:56:42 PM 41.9370 -88.4730 88° East 472 543 37,100  Level FlightAware ADS-B
Wed 05:57:22 PM 41.9390 -88.3490 89° East 469 540 37,100 -71 Level FlightAware ADS-B
Wed 05:58:07 PM 41.9410 -88.2210 89° East 468 539 37,000 -71 Descending FlightAware ADS-B
Wed 05:58:47 PM 41.9430 -88.1040 89° East 468 539 37,000  Level FlightAware ADS-B
Wed 05:59:27 PM 41.9450 -87.9940 89° East 468 539 37,000  Level FlightAware ADS-B
Wed 06:00:12 PM 41.9470 -87.8590 89° East 469 540 37,000  Level FlightAware ADS-B
Wed 06:00:52 PM 41.9480 -87.7440 89° East 469 540 37,000  Level FlightAware ADS-B
Wed 06:01:37 PM 41.9500 -87.6150 89° East 469 540 37,000  Level FlightAware ADS-B
Wed 06:02:17 PM 41.9510 -87.4970 89° East 468 539 37,000  Level FlightAware ADS-B
Wed 06:02:57 PM 41.9520 -87.3890 89° East 468 539 37,000  Level FlightAware ADS-B
Wed 06:03:42 PM 41.9530 -87.2490 89° East 470 541 37,000  Level FlightAware ADS-B
Wed 06:04:22 PM 41.9540 -87.1360 89° East 472 543 37,000  Level FlightAware ADS-B
Wed 06:05:07 PM 41.9550 -87.0020 89° East 474 545 37,000 71 Level FlightAware ADS-B
Wed 06:05:47 PM 41.9550 -86.8890 90° East 473 544 37,100 63 Climbing FlightAware ADS-B
Wed 06:06:42 PM 41.9560 -86.7270 89° East 468 539 37,100 -60 Level FlightAware ADS-B
Wed 06:07:27 PM 41.9560 -86.5960 90° East 465 535 37,000 -71 Descending FlightAware ADS-B
Wed 06:08:07 PM 41.9560 -86.4850 90° East 462 532 37,000  Level FlightAware ADS-B
Wed 06:08:47 PM 41.9570 -86.3770 89° East 461 531 37,000  Level FlightAware ADS-B
Wed 06:09:32 PM 41.9570 -86.2500 90° East 461 531 37,000  Level FlightAware ADS-B
Wed 06:10:12 PM 41.9560 -86.1220 91° East 462 532 37,000  Level FlightAware ADS-B
Wed 06:10:57 PM 41.9560 -85.9940 90° East 463 533 37,000  Level FlightAware ADS-B
Wed 06:11:37 PM 41.9560 -85.8780 90° East 462 532 37,000 75 Level FlightAware ADS-B
Wed 06:12:17 PM 41.9550 -85.7620 91° East 458 527 37,100  Climbing FlightAware ADS-B
Wed 06:13:02 PM 41.9550 -85.6390 90° East 454 522 37,000 -75 Descending FlightAware ADS-B
Wed 06:13:37 PM 41.9540 -85.5410 91° East 452 520 37,000  Level FlightAware ADS-B
Wed 06:14:22 PM 41.9530 -85.4110 91° East 453 521 37,000  Level FlightAware ADS-B
Wed 06:15:07 PM 41.9520 -85.2870 91° East 454 522 37,000  Level FlightAware ADS-B
Wed 06:15:47 PM 41.9510 -85.1780 91° East 454 522 37,000 71 Level FlightAware ADS-B
Wed 06:16:32 PM 41.9510 -85.0510 90° East 452 520 37,100 80 Climbing FlightAware ADS-B
Wed 06:17:02 PM 41.9520 -84.9690 89° East 449 517 37,100 -80 Level FlightAware ADS-B
Wed 06:17:47 PM 41.9660 -84.8440 81° East 446 513 37,000 -63 Descending FlightAware ADS-B
Wed 06:18:37 PM 41.9790 -84.7110 82° East 446 513 37,000  Level FlightAware ADS-B
Wed 06:19:17 PM 41.9900 -84.6020 82° East 447 514 37,000  Level FlightAware ADS-B
Wed 06:20:02 PM 42.0030 -84.4750 82° East 447 514 37,000  Level FlightAware ADS-B
Wed 06:20:42 PM 42.0150 -84.3580 82° East 446 513 37,000  Level FlightAware ADS-B
Wed 06:21:22 PM 42.0250 -84.2500 83° East 445 512 37,000  Level FlightAware ADS-B
Wed 06:22:02 PM 42.0350 -84.1470 83° East 444 511 37,000  Level FlightAware ADS-B
Wed 06:22:47 PM 42.0470 -84.0250 82° East 441 507 37,000  Level FlightAware ADS-B
Wed 06:23:22 PM 42.0550 -83.9340 83° East 441 507 37,000  Level FlightAware ADS-B
Wed 06:24:07 PM 42.0670 -83.8070 83° East 439 505 37,000  Level FlightAware ADS-B
Wed 06:24:47 PM 42.0770 -83.6980 83° East 438 504 37,000  Level FlightAware ADS-B
Wed 06:25:37 PM 42.0900 -83.5610 83° East 435 501 37,000 71 Level FlightAware ADS-B
Wed 06:26:12 PM 42.0980 -83.4660 83° East 430 495 37,100  Climbing FlightAware ADS-B
Wed 06:26:42 PM 42.1040 -83.3990 83° East 428 493 37,000 -75 Descending FlightAware ADS-B
Wed 06:27:32 PM 42.1150 -83.2860 82° East 426 490 37,000  Level FlightAware ADS-B
Wed 06:28:17 PM 42.1250 -83.1650 84° East 425 489 37,000  Level FlightAware ADS-B
Wed 06:28:52 PM 42.1340 -83.0650 83° East 424 488 37,000  Level FlightAware ADS-B
Wed 06:29:37 PM 42.1440 -82.9430 84° East 424 488 37,000  Level FlightAware ADS-B
Wed 06:30:22 PM 42.1530 -82.8390 83° East 423 487 37,000  Level FlightAware ADS-B
Wed 06:30:57 PM 42.1620 -82.7410 83° East 422 486 37,000  Level FlightAware ADS-B
Wed 06:31:42 PM 42.1720 -82.6200 84° East 423 487 37,000  Level FlightAware ADS-B
Wed 06:32:37 PM 42.1840 -82.4690 84° East 425 489 37,000  Level FlightAware ADS-B
Wed 06:33:37 PM 42.1960 -82.3260 83° East 428 493 37,000 60 Level FlightAware ADS-B
Wed 06:34:17 PM 42.2050 -82.2110 84° East 430 495 37,100 75 Climbing FlightAware ADS-B
Wed 06:34:57 PM 42.2130 -82.1090 84° East 429 494 37,100 -71 Level FlightAware ADS-B
Wed 06:35:42 PM 42.2230 -81.9720 84° East 428 493 37,000 -71 Descending FlightAware ADS-B
Wed 06:36:22 PM 42.2300 -81.8820 84° East 427 491 37,000  Level FlightAware ADS-B
Wed 06:37:02 PM 42.2380 -81.7770 84° East 428 493 37,000  Level FlightAware ADS-B
Wed 06:37:47 PM 42.2480 -81.6480 84° East 428 493 37,000  Level FlightAware ADS-B
Wed 06:38:32 PM 42.2570 -81.5240 84° East 428 493 37,000  Level FlightAware ADS-B
Wed 06:39:12 PM 42.2650 -81.4100 85° East 427 491 37,000  Level FlightAware ADS-B
Wed 06:39:52 PM 42.2730 -81.3040 84° East 427 491 37,000 -282 Level FlightAware ADS-B
Wed 06:40:37 PM 42.2810 -81.1830 85° East 425 489 36,600 -565 Descending FlightAware ADS-B
Wed 06:41:17 PM 42.2880 -81.0770 85° East 426 490 36,200 -706 Descending FlightAware ADS-B
Wed 06:42:02 PM 42.2970 -80.9560 84° East 439 505 35,600 -706 Descending FlightAware ADS-B
Wed 06:42:42 PM 42.3040 -80.8530 85° East 442 509 35,200 -675 Descending FlightAware ADS-B
Wed 06:43:22 PM 42.3110 -80.7410 85° East 438 504 34,700 -695 Descending FlightAware ADS-B
Wed 06:44:17 PM 42.3210 -80.5940 85° East 434 499 34,100 -600 Descending FlightAware ADS-B
Wed 06:45:02 PM 42.3280 -80.4880 85° East 411 473 33,700 -667 Descending FlightAware ADS-B
Wed 06:45:47 PM 42.3350 -80.3760 85° East 391 450 33,100 -918 Descending FlightAware ADS-B
Wed 06:46:27 PM 42.3410 -80.2770 85° East 385 443 32,400 -975 Descending FlightAware ADS-B
Wed 06:47:07 PM 42.3470 -80.1800 85° East 389 448 31,800 -918 Descending FlightAware ADS-B
Wed 06:47:52 PM 42.3530 -80.0710 86° East 396 456 31,100 -565 Descending FlightAware ADS-B
Wed 06:48:32 PM 42.3590 -79.9820 85° East 399 459 31,000 -75 Descending FlightAware ADS-B
Wed 06:49:12 PM 42.3650 -79.8720 86° East 398 458 31,000  Level FlightAware ADS-B
Wed 06:49:52 PM 42.3700 -79.7790 86° East 398 458 31,000  Level FlightAware ADS-B
Wed 06:50:37 PM 42.3780 -79.6500 85° East 400 460 31,000  Level FlightAware ADS-B
Wed 06:51:22 PM 42.3840 -79.5360 86° East 399 459 31,000  Level FlightAware ADS-B
Wed 06:51:57 PM 42.3890 -79.4530 85° East 399 459 31,000  Level FlightAware ADS-B
Wed 06:52:42 PM 42.3950 -79.3480 86° East 374 430 31,000  Level FlightAware ADS-B
Wed 06:53:27 PM 42.4000 -79.2410 86° East 372 428 31,000  Level FlightAware ADS-B
Wed 06:54:07 PM 42.4050 -79.1480 86° East 373 429 31,000  Level FlightAware ADS-B
Wed 06:54:52 PM 42.4100 -79.0430 86° East 377 434 31,000  Level FlightAware ADS-B
Wed 06:55:32 PM 42.4150 -78.9490 86° East 380 437 31,000  Level FlightAware ADS-B
Wed 06:56:17 PM 42.4210 -78.8380 86° East 382 440 31,000 71 Level FlightAware ADS-B
Wed 06:56:57 PM 42.4250 -78.7440 87° East 383 441 31,100  Climbing FlightAware ADS-B
Wed 06:57:37 PM 42.4300 -78.6470 86° East 382 440 31,000 -86 Descending FlightAware ADS-B
Wed 06:58:07 PM 42.4380 -78.5770 81° East 382 440 31,000  Level FlightAware ADS-B
Wed 06:58:52 PM 42.4780 -78.4870 59° Northeast 385 443 31,000  Level FlightAware ADS-B
Wed 06:59:32 PM 42.5180 -78.4070 56° Northeast 385 443 31,000 -282 Level FlightAware ADS-B
Wed 07:00:17 PM 42.5640 -78.3140 56° Northeast 385 443 30,600 -776 Descending FlightAware ADS-B
Wed 07:00:57 PM 42.6030 -78.2340 56° Northeast 384 442 29,900 -988 Descending FlightAware ADS-B
Wed 07:01:42 PM 42.6460 -78.1460 56° Northeast 382 440 29,200 -635 Descending FlightAware ADS-B
Wed 07:02:22 PM 42.6860 -78.0660 56° Northeast 381 438 29,000 -150 Descending FlightAware ADS-B
Wed 07:03:02 PM 42.7190 -77.9840 61° Northeast 377 434 29,000  Level FlightAware ADS-B
Wed 07:03:37 PM 42.7180 -77.9110 91° East 377 434 29,000  Level FlightAware ADS-B
Wed 07:04:22 PM 42.7050 -77.8040 99° East 376 433 29,000  Level FlightAware ADS-B
Wed 07:05:02 PM 42.6950 -77.7130 98° East 376 433 29,000 -375 Level FlightAware ADS-B
Wed 07:05:42 PM 42.6820 -77.6090 100° East 379 436 28,500 -706 Descending FlightAware ADS-B
Wed 07:06:27 PM 42.6700 -77.5120 100° East 375 432 28,000 -353 Descending FlightAware ADS-B
Wed 07:07:07 PM 42.6590 -77.4200 99° East 376 433 28,000 -71 Level FlightAware ADS-B
Wed 07:07:52 PM 42.6460 -77.3130 99° East 380 437 27,900 -494 Descending FlightAware ADS-B
Wed 07:08:32 PM 42.6340 -77.2200 100° East 376 433 27,300 -675 Descending FlightAware ADS-B
Wed 07:09:12 PM 42.6230 -77.1290 99° East 377 434 27,000 -212 Descending FlightAware ADS-B
Wed 07:09:57 PM 42.6110 -77.0290 99° East 378 435 27,000  Level FlightAware ADS-B
Wed 07:10:37 PM 42.5980 -76.9320 100° East 380 437 27,000  Level FlightAware ADS-B
Wed 07:11:22 PM 42.5840 -76.8240 100° East 383 441 27,000  Level FlightAware ADS-B
Wed 07:12:17 PM 42.5690 -76.7000 99° East 378 435 27,000  Level FlightAware ADS-B
Wed 07:12:57 PM 42.5560 -76.6010 100° East 381 438 27,000  Level FlightAware ADS-B
Wed 07:13:32 PM 42.5450 -76.5200 100° East 381 438 27,000  Level FlightAware ADS-B
Wed 07:14:22 PM 42.5300 -76.4010 100° East 376 433 27,000  Level FlightAware ADS-B
Wed 07:15:07 PM 42.5090 -76.3030 106° East 379 436 27,000  Level FlightAware ADS-B
Wed 07:15:37 PM 42.4880 -76.2420 115° Southeast 376 433 27,000  Level FlightAware ADS-B
Wed 07:16:27 PM 42.4420 -76.1390 121° Southeast 372 428 27,000  Level FlightAware ADS-B
Wed 07:17:07 PM 42.4080 -76.0640 122° Southeast 376 433 27,000  Level FlightAware ADS-B
Wed 07:18:07 PM 42.3540 -75.9430 121° Southeast 368 423 27,000  Level FlightAware ADS-B
Wed 07:18:47 PM 42.3170 -75.8650 123° Southeast 355 409 27,000  Level FlightAware ADS-B
Wed 07:19:27 PM 42.2860 -75.7960 121° Southeast 355 409 27,000  Level FlightAware ADS-B
Wed 07:20:07 PM 42.2580 -75.7310 120° Southeast 355 409 27,000  Level FlightAware ADS-B
Wed 07:20:47 PM 42.2290 -75.6670 121° Southeast 355 409 27,000 -3,400 Level FlightAware ADS-B
Wed 07:21:37 PM 42.1720 -75.5500 123° Southeast 334 384 21,900 -3,533 Descending FlightAware ADS-B
Wed 07:22:17 PM 42.1440 -75.4870 121° Southeast 334 384 21,700 -150 Descending FlightAware ADS-B
Wed 07:22:57 PM 42.1170 -75.4260 121° Southeast 334 384 21,700  Level FlightAware ADS-B
Wed 07:23:37 PM 42.0890 -75.3650 122° Southeast 334 384 21,700  Level FlightAware ADS-B
Wed 07:24:17 PM 42.0620 -75.3050 121° Southeast 334 384 21,700  Level FlightAware ADS-B
Wed 07:25:07 PM 42.0290 -75.2290 120° Southeast 334 384 21,700  Level FlightAware ADS-B
Wed 07:25:37 PM 42.0080 -75.1830 122° Southeast 334 384 21,700 -2,612 Level FlightAware ADS-B
Wed 07:26:32 PM 41.9630 -75.0490 114° Southeast 302 348 18,000 -2,018 Descending FlightAware ADS-B
Wed 07:27:27 PM 41.9320 -74.9670 117° Southeast 302 348 18,000 -57 Level FlightAware ADS-B
Wed 07:28:17 PM 41.8990 -74.8790 117° Southeast 302 348 17,900 -67 Descending FlightAware ADS-B
Wed 07:28:57 PM 41.8780 -74.8210 116° Southeast 302 348 17,900  Level FlightAware ADS-B
Wed 07:29:47 PM 41.8520 -74.7500 116° Southeast 302 348 17,900  Level FlightAware ADS-B
Wed 07:30:27 PM 41.8310 -74.6920 116° Southeast 302 348 17,900  Level FlightAware ADS-B
Wed 07:31:07 PM 41.8100 -74.6350 116° Southeast 302 348 17,900  Level FlightAware ADS-B
Wed 07:31:47 PM 41.7890 -74.5780 116° Southeast 302 348 17,900 -1,853 Level FlightAware ADS-B
Wed 07:35:52 PM 41.6230 -74.3000 129° Southeast 254 292 9,100 -1,956 Descending FlightAware ADS-B
Wed 07:36:17 PM 41.6060 -74.2700 127° Southeast 254 292 9,100  Level FlightAware ADS-B
Wed 07:36:47 PM 41.5880 -74.2380 127° Southeast 254 292 9,100  Level FlightAware ADS-B
Wed 07:36:57 PM 41.5820 -74.2270 126° Southeast 254 292 9,100  Level FlightAware ADS-B
Wed 07:37:27 PM 41.5640 -74.1950 127° Southeast 254 292 9,100  Level FlightAware ADS-B
Wed 07:37:47 PM 41.5520 -74.1740 127° Southeast 254 292 9,100 -406 Level FlightAware ADS-B
Wed 07:42:52 PM 41.1420 -74.5060 211° Southwest 254 292 6,900 -547 Descending FlightAware ADS-B
Wed 07:43:27 PM 41.0971 -74.5150 189° South 255 293 6,000 -1,038 Descending FlightAware ADS-B
Wed 07:43:44 PM 41.0777 -74.5189 189° South 254 292 6,000  Level FlightAware ADS-B
Wed 07:44:00 PM 41.0580 -74.5230 189° South 255 293 6,000  Level FlightAware ADS-B
Wed 07:44:30 PM 41.0231 -74.5300 189° South 259 298 6,000  Level FlightAware ADS-B
Wed 07:44:52 PM 40.9976 -74.5351 189° South 259 298 6,000  Level FlightAware ADS-B
Wed 07:45:07 PM 40.9806 -74.5386 189° South 259 298 6,000 -400 Level FlightAware ADS-B
Wed 07:45:22 PM 40.9614 -74.5425 189° South 256 295 5,800 -1,125 Descending FlightAware ADS-B
Wed 07:45:39 PM 40.9430 -74.5464 189° South 255 293 5,400 -1,067 Descending FlightAware ADS-B
Wed 07:46:07 PM 40.9092 -74.5535 189° South 256 295 5,000 -686 Descending FlightAware ADS-B
Wed 07:46:14 PM 40.9003 -74.5552 188° South 259 298 5,000  Level FlightAware ADS-B
Wed 07:46:36 PM 40.8756 -74.5557 181° South 257 296 5,000  Level FlightAware ADS-B
Wed 07:46:45 PM 40.8637 -74.5553 179° South 256 295 5,000  Level FlightAware ADS-B
Wed 07:46:51 PM 40.8561 -74.5551 179° South 257 296 5,000  Level FlightAware ADS-B
Wed 07:47:05 PM 40.8403 -74.5546 179° South 258 297 5,000  Level FlightAware ADS-B
Wed 07:47:22 PM 40.8197 -74.5541 179° South 257 296 5,000  Level FlightAware ADS-B
Wed 07:47:38 PM 40.8005 -74.5538 179° South 258 297 5,000  Level FlightAware ADS-B
Wed 07:48:08 PM 40.7668 -74.5422 165° South 256 295 5,000  Level FlightAware ADS-B
Wed 07:48:16 PM 40.7574 -74.5370 157° South 255 293 5,000  Level FlightAware ADS-B
Wed 07:48:33 PM 40.7396 -74.5272 157° South 256 295 5,000  Level FlightAware ADS-B
Wed 07:49:00 PM 40.7099 -74.5112 158° South 256 295 5,000  Level FlightAware ADS-B
Wed 07:49:11 PM 40.6979 -74.5048 158° South 256 295 5,000  Level FlightAware ADS-B
Wed 07:49:32 PM 40.6760 -74.4930 158° South 255 293 5,000 -150 Level FlightAware ADS-B
Wed 07:49:51 PM 40.6537 -74.4811 158° South 254 292 4,900 -500 Descending FlightAware ADS-B
Wed 07:50:08 PM 40.6357 -74.4713 158° South 252 290 4,700 -1,091 Descending FlightAware ADS-B
Wed 07:50:24 PM 40.6187 -74.4618 157° South 252 290 4,300 -1,313 Descending FlightAware ADS-B
Wed 07:50:40 PM 40.6018 -74.4525 157° South 251 289 4,000 -923 Descending FlightAware ADS-B
Wed 07:50:50 PM 40.5911 -74.4453 153° Southeast 246 283 3,900 -333 Descending FlightAware ADS-B
Wed 07:50:58 PM 40.5840 -74.4376 141° Southeast 238 274 3,900  Level FlightAware ADS-B
Wed 07:51:04 PM 40.5802 -74.4311 128° Southeast 232 267 3,900  Level FlightAware ADS-B
Wed 07:51:11 PM 40.5766 -74.4223 118° Southeast 225 259 3,900  Level FlightAware ADS-B
Wed 07:51:45 PM 40.5613 -74.3853 119° Southeast 189 217 3,900 -222 Level FlightAware ADS-B
Wed 07:52:05 PM 40.5527 -74.3665 121° Southeast 180 207 3,700 -833 Descending FlightAware ADS-B
Wed 07:52:21 PM 40.5460 -74.3512 120° Southeast 180 207 3,400 -1,231 Descending FlightAware ADS-B
Wed 07:52:44 PM 40.5372 -74.3302 119° Southeast 180 207 2,900 -1,135 Descending FlightAware ADS-B
Wed 07:52:58 PM 40.5311 -74.3150 118° Southeast 179 206 2,700 -316 Descending FlightAware ADS-B
Wed 07:53:22 PM 40.5245 -74.2912 110° East 187 215 2,700  Level FlightAware ADS-B
Wed 07:53:25 PM 40.5245 -74.2871 90° East 190 219 2,700  Level FlightAware ADS-B
Wed 07:53:31 PM 40.5253 -74.2811 80° East 195 224 2,700  Level FlightAware ADS-B
Wed 07:53:35 PM 40.5264 -74.2764 73° East 196 226 2,700  Level FlightAware ADS-B
Wed 07:53:38 PM 40.5276 -74.2727 67° East 199 229 2,700  Level FlightAware ADS-B
Wed 07:53:51 PM 40.5359 -74.2610 47° Northeast 207 238 2,700  Level FlightAware ADS-B
Wed 07:53:57 PM 40.5411 -74.2579 24° Northeast 210 242 2,700  Level FlightAware ADS-B
Wed 07:54:00 PM 40.5438 -74.2568 17° North 210 242 2,700  Level FlightAware ADS-B
Wed 07:54:14 PM 40.5564 -74.2505 21° North 209 241 2,700 -732 Level FlightAware ADS-B
Wed 07:54:41 PM 40.5802 -74.2361 25° Northeast 207 238 2,200 -1,116 Descending FlightAware ADS-B
Wed 07:54:57 PM 40.5937 -74.2275 26° Northeast 209 241 1,900 -1,149 Descending FlightAware ADS-B
Wed 07:55:28 PM 40.6199 -74.2110 26° Northeast 203 234 1,300 -1,171 Descending FlightAware ADS-B
Wed 07:55:38 PM 40.6272 -74.2063 26° Northeast 180 207 1,100 -947 Descending FlightAware ADS-B
Wed 07:55:47 PM 40.6340 -74.2020 26° Northeast 165 190 1,000 -667 Descending FlightAware ADS-B
Wed 07:56:05 PM 40.6456 -74.1947 26° Northeast 153 176 800 -833 Descending FlightAware ADS-B
Wed 07:56:23 PM 40.6566 -74.1877 26° Northeast 144 166 500 -828 Descending FlightAware ADS-B
Wed 07:56:34 PM 40.6632 -74.1834 26° Northeast 142 163 400 -750 Descending FlightAware ADS-B
Wed 07:56:47 PM 40.6710 -74.1784 26° Northeast 139 160 200 -923 Descending FlightAware ADS-B

Login

Don't have an account? Register now (free) for customized features, flight alerts, and more!